Time;durP1;ratioP1;P1;durP2;ratioP2;P2;SDS_P1;SDS_P2;PMS_P1;PMS_P2;Temp;Humidity;BMP_temperature;BMP_pressure;BME280_temperature;BME280_humidity;BME280_pressure;Samples;Min_cycle;Max_cycle;Signal;HPM_P1;HPM_P2
2022/04/05 00:00:45;;;;;;;4.85;3.53;;;17.60;82.10;;;;;;4882604;28;95758;-46
2022/04/05 00:03:16;;;;;;;4.30;3.90;;;17.60;82.40;;;;;;4888147;28;96613;-47
2022/04/05 00:05:53;;;;;;;4.32;3.85;;;17.70;82.60;;;;;;4889022;28;96515;-47
2022/04/05 00:08:24;;;;;;;5.03;3.97;;;17.70;82.50;;;;;;4885589;28;96127;-46
2022/04/05 00:10:57;;;;;;;4.63;3.17;;;17.80;82.60;;;;;;4889080;28;96023;-50
2022/04/05 00:13:28;;;;;;;3.63;3.33;;;17.80;82.60;;;;;;4887320;28;95898;-48
2022/04/05 00:15:59;;;;;;;4.05;3.65;;;17.80;82.50;;;;;;4867747;28;96051;-48
2022/04/05 00:18:30;;;;;;;3.92;3.58;;;17.90;82.40;;;;;;4885437;28;96003;-46
2022/04/05 00:21:01;;;;;;;;;;;17.90;82.50;;;;;;4888332;28;95762;-51
2022/04/05 00:23:32;;;;;;;4.47;3.42;;;18.00;82.40;;;;;;4888325;28;95853;-52
2022/04/05 00:26:03;;;;;;;3.33;3.03;;;18.00;82.30;;;;;;4885192;28;96440;-49
2022/04/05 00:28:33;;;;;;;3.70;3.35;;;18.00;82.30;;;;;;4886040;28;95992;-50
2022/04/05 00:31:05;;;;;;;3.38;3.08;;;18.00;82.20;;;;;;4880859;28;96139;-51
2022/04/05 00:33:36;;;;;;;4.25;3.00;;;18.10;82.30;;;;;;4885457;28;95943;-47
2022/04/05 00:36:07;;;;;;;4.20;3.53;;;18.10;82.20;;;;;;4885071;28;96473;-47
2022/04/05 00:38:38;;;;;;;3.63;2.70;;;18.10;82.10;;;;;;4884187;28;95978;-45
2022/04/05 00:41:09;;;;;;;6.10;3.15;;;18.20;82.00;;;;;;4876194;28;97328;-45
2022/04/05 00:43:41;;;;;;;5.15;3.15;;;18.20;82.00;;;;;;4885394;28;96018;-46
2022/04/05 00:46:11;;;;;;;3.47;3.13;;;18.20;81.80;;;;;;4882432;28;96657;-47
2022/04/05 00:48:51;;;;;;;4.65;3.10;;;18.30;81.70;;;;;;4886327;28;95969;-47
2022/04/05 00:51:23;;;;;;;3.40;3.10;;;18.30;81.70;;;;;;4875475;28;95952;-49
2022/04/05 00:53:57;;;;;;;3.47;2.83;;;18.40;81.70;;;;;;4884350;28;96012;-45
2022/04/05 00:56:30;;;;;;;3.67;2.92;;;18.30;81.80;;;;;;4887706;28;95389;-48
2022/04/05 00:59:03;;;;;;;3.08;2.80;;;18.40;81.70;;;;;;4885541;28;96446;-47
2022/04/05 01:01:35;;;;;;;3.53;2.50;;;18.40;81.60;;;;;;4881376;28;95800;-52
2022/04/05 01:04:07;;;;;;;3.05;2.70;;;18.50;81.50;;;;;;4886688;28;95783;-45
2022/04/05 01:06:44;;;;;;;6.18;2.60;;;18.50;81.40;;;;;;4880715;28;96627;-45
2022/04/05 01:09:16;;;;;;;2.90;2.60;;;18.60;81.20;;;;;;4883426;28;96120;-43
2022/04/05 01:11:46;;;;;;;;;;;18.80;67.70;;;;;;4886825;28;95802;-44
2022/04/05 01:14:17;;;;;;;2.40;2.20;;;18.90;80.80;;;;;;4887415;28;95827;-48
2022/04/05 01:16:49;;;;;;;2.22;2.08;;;19.00;80.40;;;;;;4878786;28;96517;-47
2022/04/05 01:19:20;;;;;;;2.20;2.10;;;19.20;80.20;;;;;;4890542;28;97134;-46
2022/04/05 01:21:54;;;;;;;2.40;2.03;;;19.30;79.90;;;;;;4885359;28;95975;-45
2022/04/05 01:24:24;;;;;;;2.33;2.10;;;19.40;80.00;;;;;;4884992;28;96012;-46
2022/04/05 01:26:58;;;;;;;2.97;2.05;;;19.50;79.90;;;;;;4883156;28;96394;-47
2022/04/05 01:29:30;;;;;;;2.65;2.00;;;19.70;79.80;;;;;;4885306;28;95834;-45
2022/04/05 01:32:06;;;;;;;2.08;1.88;;;19.80;79.80;;;;;;4882036;28;97487;-45
2022/04/05 01:34:38;;;;;;;2.15;2.00;;;19.90;79.80;;;;;;4885545;28;95379;-49
2022/04/05 01:37:11;;;;;;;1.60;1.50;;;20.00;79.60;;;;;;4885303;28;95940;-47
2022/04/05 01:39:43;;;;;;;1.92;1.83;;;20.10;79.40;;;;;;4885102;28;96026;-49
2022/04/05 01:42:16;;;;;;;1.90;1.80;;;20.20;79.20;;;;;;4883671;28;96350;-47
2022/04/05 01:44:47;;;;;;;3.55;2.08;;;20.30;79.00;;;;;;4886071;28;96129;-47
2022/04/05 01:47:19;;;;;;;2.00;1.80;;;20.40;78.80;;;;;;4884144;28;96649;-49
2022/04/05 01:49:51;;;;;;;1.73;1.60;;;20.50;78.70;;;;;;4884449;28;95540;-48
2022/04/05 01:52:21;;;;;;;1.60;1.50;;;20.50;78.60;;;;;;4881370;28;95962;-49
2022/04/05 01:54:53;;;;;;;2.55;1.50;;;20.50;78.40;;;;;;4890848;28;95944;-46
2022/04/05 01:57:23;;;;;;;1.73;1.63;;;20.60;78.30;;;;;;4876156;28;96396;-46
2022/04/05 01:59:54;;;;;;;1.60;1.50;;;20.60;78.20;;;;;;4887433;28;95906;-45
2022/04/05 02:02:25;;;;;;;2.15;1.73;;;20.70;78.00;;;;;;4884880;28;95598;-45
2022/04/05 02:04:57;;;;;;;1.17;1.10;;;20.80;78.10;;;;;;4889197;28;95856;-48
2022/04/05 02:07:29;;;;;;;1.70;1.60;;;20.90;78.00;;;;;;4888166;28;97398;-52
2022/04/05 02:10:00;;;;;;;1.60;1.50;;;20.90;78.00;;;;;;4888104;28;96026;-46
2022/04/05 02:12:31;;;;;;;1.50;1.40;;;21.00;77.80;;;;;;4888932;28;95885;-46
2022/04/05 02:15:15;;;;;;;1.38;1.27;;;21.10;77.80;;;;;;4880997;28;96389;-47
2022/04/05 02:17:51;;;;;;;1.38;1.27;;;21.20;77.80;;;;;;4887070;28;102354;-49
2022/04/05 02:20:27;;;;;;;1.20;1.10;;;21.30;77.60;;;;;;4877337;28;97671;-48
2022/04/05 02:22:57;;;;;;;;;;;21.40;77.50;;;;;;4880175;28;96163;-47
2022/04/05 02:25:48;;;;;;;1.42;1.33;;;21.50;77.30;;;;;;4889394;28;96023;-48
2022/04/05 02:28:25;;;;;;;1.10;1.10;;;21.60;77.00;;;;;;4885183;28;98769;-42
2022/04/05 02:30:59;;;;;;;1.52;1.42;;;21.80;76.70;;;;;;4873922;28;95408;-44
2022/04/05 02:33:36;;;;;;;1.17;1.17;;;21.90;76.60;;;;;;4884599;28;95899;-46
2022/04/05 02:36:18;;;;;;;1.58;1.00;;;21.90;76.30;;;;;;4886314;28;96861;-48
2022/04/05 02:38:54;;;;;;;1.88;1.63;;;22.00;76.10;;;;;;4886575;28;96772;-43
2022/04/05 02:41:28;;;;;;;1.58;1.48;;;22.00;76.00;;;;;;4887910;28;95819;-44
2022/04/05 02:43:59;;;;;;;1.20;1.20;;;22.10;75.90;;;;;;4886153;28;96233;-48
2022/04/05 02:46:33;;;;;;;1.15;1.08;;;22.10;75.90;;;;;;4882438;28;96019;-50
2022/04/05 02:49:09;;;;;;;1.55;1.45;;;22.10;75.70;;;;;;4886732;28;96040;-44
2022/04/05 02:51:40;;;;;;;1.35;1.13;;;22.20;75.60;;;;;;4858708;28;97850;-44
2022/04/05 02:54:16;;;;;;;1.00;0.95;;;22.20;75.60;;;;;;4884710;28;96171;-47
2022/04/05 02:56:46;;;;;;;0.90;0.90;;;22.30;75.00;;;;;;4887700;28;96617;-55
2022/04/05 02:59:18;;;;;;;1.20;1.13;;;22.30;75.50;;;;;;4886727;28;96077;-44
2022/04/05 03:01:52;;;;;;;1.70;1.60;;;22.30;74.80;;;;;;4883352;28;96014;-44
2022/04/05 03:04:24;;;;;;;1.45;1.30;;;22.10;71.10;;;;;;4892750;28;96039;-45
2022/04/05 03:06:56;;;;;;;1.88;1.52;;;21.90;71.60;;;;;;4885153;28;95551;-48
2022/04/05 03:09:28;;;;;;;1.75;1.65;;;21.80;72.50;;;;;;4877378;28;98301;-43
2022/04/05 03:11:59;;;;;;;1.40;1.33;;;21.70;70.90;;;;;;4877216;28;97564;-48
2022/04/05 03:14:34;;;;;;;1.80;1.70;;;21.70;72.60;;;;;;4875587;28;95987;-45
2022/04/05 03:17:04;;;;;;;2.30;1.33;;;21.70;61.30;;;;;;4877821;28;96054;-48
2022/04/05 03:19:36;;;;;;;1.67;1.58;;;21.60;62.10;;;;;;4880368;28;97121;-47
2022/04/05 03:22:11;;;;;;;1.85;1.75;;;21.50;72.70;;;;;;4873930;28;97242;-47
2022/04/05 03:24:41;;;;;;;1.30;1.20;;;21.50;72.80;;;;;;4884692;28;95995;-45
2022/04/05 03:27:12;;;;;;;;;;;21.40;72.90;;;;;;4886853;28;96133;-46
2022/04/05 03:29:44;;;;;;;2.08;1.40;;;21.40;64.40;;;;;;4886391;28;98562;-46
2022/04/05 03:32:15;;;;;;;1.70;1.60;;;21.40;73.20;;;;;;4879534;28;96081;-47
2022/04/05 03:34:49;;;;;;;2.42;1.75;;;21.30;73.90;;;;;;4885250;28;97027;-47
2022/04/05 03:37:21;;;;;;;2.60;1.45;;;21.30;73.10;;;;;;4884024;28;95813;-46
2022/04/05 03:39:51;;;;;;;1.50;1.40;;;21.30;73.50;;;;;;4892928;28;98333;-49
2022/04/05 03:42:22;;;;;;;1.48;1.38;;;21.20;73.60;;;;;;4885269;28;97997;-47
2022/04/05 03:44:54;;;;;;;1.35;1.25;;;21.20;73.60;;;;;;4877140;28;96107;-46
2022/04/05 03:47:26;;;;;;;2.25;1.58;;;21.20;73.70;;;;;;4880263;28;95855;-49
2022/04/05 03:49:58;;;;;;;1.60;1.50;;;21.10;73.80;;;;;;4884076;28;96744;-48
2022/04/05 03:52:31;;;;;;;1.30;1.20;;;21.10;73.80;;;;;;4870286;28;97190;-48
2022/04/05 03:55:02;;;;;;;1.75;1.65;;;21.10;73.70;;;;;;4883225;28;96501;-48
2022/04/05 03:57:33;;;;;;;1.35;1.33;;;21.10;73.80;;;;;;4876173;28;95525;-46
2022/04/05 04:00:08;;;;;;;1.58;1.48;;;21.10;74.40;;;;;;4884819;28;96799;-48
2022/04/05 04:02:42;;;;;;;1.40;1.30;;;21.10;73.80;;;;;;4879866;28;96502;-47
2022/04/05 04:05:17;;;;;;;2.28;1.35;;;21.10;73.80;;;;;;4875661;28;96439;-43
2022/04/05 04:07:51;;;;;;;2.20;1.27;;;21.20;69.70;;;;;;4875017;28;96524;-44
2022/04/05 04:10:25;;;;;;;1.67;1.17;;;21.20;73.10;;;;;;4883359;28;96334;-43
2022/04/05 04:12:59;;;;;;;3.47;1.20;;;21.30;67.70;;;;;;4882495;28;95955;-45
2022/04/05 04:15:35;;;;;;;0.80;0.80;;;21.30;62.90;;;;;;4878813;28;95675;-44
2022/04/05 04:18:09;;;;;;;4.20;1.25;;;21.10;63.60;;;;;;4876546;28;95999;-45
2022/04/05 04:20:44;;;;;;;2.42;1.45;;;21.00;66.20;;;;;;4884190;28;98100;-44
2022/04/05 04:23:17;;;;;;;1.05;1.05;;;21.20;63.70;;;;;;4891119;28;97293;-43
2022/04/05 04:25:54;;;;;;;1.40;1.15;;;21.20;68.20;;;;;;4884709;28;95940;-42
2022/04/05 04:28:25;;;;;;;2.85;1.30;;;21.30;67.90;;;;;;4875606;28;96093;-45
2022/04/05 04:30:58;;;;;;;2.25;0.90;;;21.00;62.70;;;;;;4882574;28;96246;-45
2022/04/05 04:33:28;;;;;;;2.72;1.13;;;21.00;61.70;;;;;;4886363;28;96646;-44
2022/04/05 04:35:59;;;;;;;;;;;20.80;59.60;;;;;;4886767;28;95461;-43
2022/04/05 04:38:30;;;;;;;2.30;1.20;;;20.90;65.20;;;;;;4886482;28;96458;-43
2022/04/05 04:41:02;;;;;;;4.47;1.75;;;21.10;67.00;;;;;;4884222;28;95942;-48
2022/04/05 04:43:33;;;;;;;1.25;0.95;;;21.20;65.20;;;;;;4886148;28;96154;-44
2022/04/05 04:46:04;;;;;;;1.20;1.10;;;21.10;61.80;;;;;;4878503;28;97782;-45
2022/04/05 04:48:36;;;;;;;1.90;0.98;;;20.90;58.40;;;;;;4886622;28;96144;-48
2022/04/05 04:51:07;;;;;;;2.40;1.05;;;20.50;60.20;;;;;;4882869;28;97043;-43
2022/04/05 04:53:37;;;;;;;1.73;0.82;;;20.60;68.10;;;;;;4884313;28;95454;-46
2022/04/05 04:56:08;;;;;;;3.43;1.20;;;20.80;60.00;;;;;;4886905;28;95816;-43
2022/04/05 04:58:39;;;;;;;1.55;0.95;;;21.00;65.70;;;;;;4887105;28;95799;-44
2022/04/05 05:01:10;;;;;;;;;;;21.20;63.00;;;;;;4881274;28;96102;-44
2022/04/05 05:03:41;;;;;;;1.00;0.98;;;21.30;63.00;;;;;;4885405;28;96341;-45
2022/04/05 05:06:12;;;;;;;2.70;1.10;;;21.40;63.40;;;;;;4891702;28;95892;-45
2022/04/05 05:08:44;;;;;;;0.85;0.73;;;21.30;65.20;;;;;;4885560;28;95877;-44
2022/04/05 05:11:16;;;;;;;1.08;0.60;;;21.50;66.50;;;;;;4885183;28;97459;-45
2022/04/05 05:13:48;;;;;;;1.80;1.02;;;21.10;59.70;;;;;;4886145;28;96037;-47
2022/04/05 05:16:19;;;;;;;1.08;1.08;;;21.00;64.00;;;;;;4879735;28;95787;-45
2022/04/05 05:18:52;;;;;;;0.73;0.73;;;21.20;67.40;;;;;;4883487;28;95363;-45
2022/04/05 05:21:25;;;;;;;1.20;0.98;;;21.40;66.60;;;;;;4886038;28;97150;-45
2022/04/05 05:23:55;;;;;;;3.08;0.85;;;21.40;65.70;;;;;;4888095;28;95969;-43
2022/04/05 05:26:26;;;;;;;2.17;0.63;;;21.40;65.80;;;;;;4888673;28;96220;-43
2022/04/05 05:28:58;;;;;;;1.52;0.75;;;21.60;60.90;;;;;;4890199;28;95810;-43
2022/04/05 05:31:28;;;;;;;1.90;1.00;;;21.60;65.30;;;;;;4883308;28;99041;-44
2022/04/05 05:33:59;;;;;;;1.67;0.70;;;21.40;63.80;;;;;;4887760;28;96603;-45
2022/04/05 05:36:30;;;;;;;0.60;0.55;;;21.50;65.30;;;;;;4886868;28;96502;-45
2022/04/05 05:39:02;;;;;;;1.40;1.20;;;21.50;61.60;;;;;;4888563;28;95694;-45
2022/04/05 05:41:33;;;;;;;0.85;0.70;;;21.60;62.10;;;;;;4888232;28;95893;-47
2022/04/05 05:44:05;;;;;;;5.03;0.88;;;21.30;64.60;;;;;;4889674;28;96028;-44
2022/04/05 05:46:35;;;;;;;;;;;21.20;61.90;;;;;;4885367;28;97914;-43
2022/04/05 05:49:08;;;;;;;1.60;0.50;;;20.80;59.20;;;;;;4889352;28;96578;-44
2022/04/05 05:51:38;;;;;;;1.33;0.50;;;20.30;62.90;;;;;;4876394;28;96695;-44
2022/04/05 05:54:08;;;;;;;3.75;0.50;;;20.30;62.70;;;;;;4885475;28;95840;-49
2022/04/05 05:56:38;;;;;;;1.85;0.55;;;20.30;60.20;;;;;;4889562;28;95669;-44
2022/04/05 05:59:10;;;;;;;1.65;0.40;;;20.20;60.00;;;;;;4890392;28;96181;-47
2022/04/05 06:01:41;;;;;;;2.42;0.60;;;20.20;60.60;;;;;;4883337;28;96471;-48
2022/04/05 06:04:14;;;;;;;2.30;0.90;;;20.50;64.70;;;;;;4888282;28;97044;-44
2022/04/05 06:06:45;;;;;;;0.47;0.40;;;20.60;60.60;;;;;;4886424;28;96668;-43
2022/04/05 06:09:16;;;;;;;3.35;0.77;;;20.70;61.70;;;;;;4885656;28;96036;-44
2022/04/05 06:11:47;;;;;;;0.73;0.53;;;20.60;61.00;;;;;;4886743;28;96548;-44
2022/04/05 06:14:19;;;;;;;1.00;0.70;;;20.30;61.50;;;;;;4887697;28;95986;-48
2022/04/05 06:16:49;;;;;;;1.77;0.82;;;20.20;63.10;;;;;;4882561;28;96122;-44
2022/04/05 06:19:21;;;;;;;2.47;0.70;;;20.10;64.30;;;;;;4888068;28;95332;-45
2022/04/05 06:21:51;;;;;;;1.88;0.77;;;20.00;62.20;;;;;;4887677;28;97115;-44
2022/04/05 06:24:23;;;;;;;2.22;0.82;;;20.10;63.70;;;;;;4886862;28;97633;-46
2022/04/05 06:26:54;;;;;;;1.50;0.80;;;20.40;61.70;;;;;;4886711;28;95556;-46
2022/04/05 06:29:24;;;;;;;0.70;0.65;;;20.50;62.30;;;;;;4889171;28;95821;-44
2022/04/05 06:31:55;;;;;;;3.78;1.08;;;20.60;61.10;;;;;;4882194;28;95904;-43
2022/04/05 06:34:30;;;;;;;8.77;0.85;;;20.60;65.70;;;;;;4887172;28;96642;-44
2022/04/05 06:37:01;;;;;;;2.60;0.65;;;20.50;63.20;;;;;;4888191;28;95860;-43
2022/04/05 06:39:33;;;;;;;1.25;0.60;;;20.40;62.50;;;;;;4888610;28;95985;-43
2022/04/05 06:42:04;;;;;;;3.65;0.73;;;20.10;63.60;;;;;;4886680;28;95933;-44
2022/04/05 06:44:36;;;;;;;2.50;0.70;;;19.80;63.30;;;;;;4888409;28;96163;-45
2022/04/05 06:47:11;;;;;;;2.70;1.02;;;19.50;65.80;;;;;;4885502;28;96787;-43
2022/04/05 06:49:43;;;;;;;1.98;0.60;;;19.30;61.00;;;;;;4886420;28;96370;-43
2022/04/05 06:52:14;;;;;;;1.87;0.60;;;19.10;65.20;;;;;;4869658;28;96477;-42
2022/04/05 06:54:46;;;;;;;2.30;0.75;;;19.00;67.70;;;;;;4887564;28;95694;-43
2022/04/05 06:57:19;;;;;;;1.75;0.70;;;18.90;68.00;;;;;;4889866;28;97567;-44
2022/04/05 06:59:52;;;;;;;4.10;1.10;;;18.80;69.60;;;;;;4871126;28;95877;-43
2022/04/05 07:02:25;;;;;;;0.90;0.73;;;18.90;55.60;;;;;;4883349;28;95962;-43
2022/04/05 07:04:57;;;;;;;3.50;0.95;;;18.70;67.80;;;;;;4888318;28;96216;-44
2022/04/05 07:07:27;;;;;;;;;;;18.70;56.00;;;;;;4888629;28;95635;-46
2022/04/05 07:09:57;;;;;;;4.55;0.90;;;18.60;70.50;;;;;;4889532;28;96429;-45
2022/04/05 07:12:27;;;;;;;4.25;0.77;;;18.60;70.50;;;;;;4887839;28;95384;-50
2022/04/05 07:14:57;;;;;;;0.88;0.70;;;18.60;71.90;;;;;;4884826;28;96089;-44
2022/04/05 07:17:27;;;;;;;4.07;1.25;;;18.70;70.50;;;;;;4880888;28;96474;-43
2022/04/05 07:20:18;;;;;;;2.35;0.80;;;18.80;70.50;;;;;;4886092;28;96727;-46
2022/04/05 07:22:49;;;;;;;;;;;18.70;69.60;;;;;;4886584;28;96596;-43
2022/04/05 07:25:21;;;;;;;2.67;0.85;;;18.80;68.10;;;;;;4895281;28;97596;-49
2022/04/05 07:27:51;;;;;;;1.35;0.70;;;18.80;68.60;;;;;;4888599;28;96511;-43
2022/04/05 07:30:23;;;;;;;2.40;0.60;;;18.60;69.20;;;;;;4883718;28;95442;-43
2022/04/05 07:32:54;;;;;;;3.33;0.55;;;18.40;70.90;;;;;;4883985;28;104465;-43
2022/04/05 07:35:26;;;;;;;0.77;0.38;;;18.30;72.50;;;;;;4887141;28;96040;-45
2022/04/05 07:37:58;;;;;;;1.48;0.60;;;18.40;70.70;;;;;;4886763;28;95852;-44
2022/04/05 07:40:47;;;;;;;2.10;0.70;;;18.40;71.30;;;;;;4887189;28;95820;-45
2022/04/05 07:43:22;;;;;;;2.25;0.70;;;18.40;69.90;;;;;;4887441;28;96127;-46
2022/04/05 07:45:55;;;;;;;2.72;0.60;;;18.30;70.30;;;;;;4875322;28;96935;-44
2022/04/05 07:48:28;;;;;;;5.82;0.60;;;18.50;70.30;;;;;;4868460;28;95930;-44
2022/04/05 07:51:00;;;;;;;0.60;0.50;;;18.40;71.00;;;;;;4860608;28;95899;-46
2022/04/05 07:53:30;;;;;;;2.10;0.68;;;18.10;71.40;;;;;;4876667;28;96618;-45
2022/04/05 07:56:01;;;;;;;2.15;0.55;;;18.00;72.60;;;;;;4867904;28;96234;-43
2022/04/05 07:58:32;;;;;;;4.07;0.70;;;17.90;72.30;;;;;;4869850;28;95870;-44
2022/04/05 08:01:03;;;;;;;1.92;0.60;;;17.90;72.40;;;;;;4864295;28;95569;-49
2022/04/05 08:03:35;;;;;;;2.47;0.55;;;17.70;73.30;;;;;;4866263;28;98112;-49
2022/04/05 08:06:07;;;;;;;2.33;0.50;;;17.60;74.40;;;;;;4854886;28;96410;-47
2022/04/05 08:08:36;;;;;;;3.60;0.47;;;17.60;74.80;;;;;;4866735;28;95828;-45
2022/04/05 08:11:27;;;;;;;1.90;0.70;;;17.50;74.80;;;;;;4867251;28;96048;-44
2022/04/05 08:13:57;;;;;;;2.03;0.52;;;17.60;74.80;;;;;;4868417;28;96046;-49
2022/04/05 08:16:30;;;;;;;0.90;0.55;;;17.70;74.30;;;;;;4865147;28;96000;-44
2022/04/05 08:19:04;;;;;;;1.35;0.70;;;17.60;74.00;;;;;;4877217;28;95867;-45
2022/04/05 08:21:34;;;;;;;2.17;0.57;;;17.60;74.50;;;;;;4874731;28;97664;-46
2022/04/05 08:24:06;;;;;;;2.67;0.80;;;17.50;74.20;;;;;;4875680;28;96493;-54
2022/04/05 08:26:37;;;;;;;3.88;0.50;;;17.40;75.00;;;;;;4876808;28;98073;-45
2022/04/05 08:29:09;;;;;;;4.80;0.80;;;17.40;73.90;;;;;;4879963;28;96070;-44
2022/04/05 08:31:40;;;;;;;1.10;0.70;;;17.30;75.40;;;;;;4866857;28;98371;-44
2022/04/05 08:34:14;;;;;;;3.80;0.70;;;17.30;75.10;;;;;;4867307;28;95993;-47
2022/04/05 08:36:46;;;;;;;1.88;0.85;;;17.20;61.80;;;;;;4866593;28;96546;-44
2022/04/05 08:39:18;;;;;;;1.88;0.60;;;17.10;75.70;;;;;;4865244;28;95837;-45
2022/04/05 08:41:52;;;;;;;5.25;1.17;;;17.00;76.50;;;;;;4867048;28;96427;-45
2022/04/05 08:44:24;;;;;;;1.02;0.60;;;16.90;76.60;;;;;;4866622;28;96653;-46
2022/04/05 08:46:56;;;;;;;3.95;0.85;;;17.00;76.30;;;;;;4874513;28;96581;-49
2022/04/05 08:49:30;;;;;;;1.25;0.50;;;17.00;76.50;;;;;;4884933;28;96033;-45
2022/04/05 08:52:00;;;;;;;2.53;0.75;;;16.90;76.10;;;;;;4875812;28;97857;-43
2022/04/05 08:54:31;;;;;;;1.30;0.50;;;17.00;76.60;;;;;;4885404;28;96880;-44
2022/04/05 08:57:01;;;;;;;1.57;0.63;;;16.90;76.10;;;;;;4888073;28;96331;-44
2022/04/05 08:59:32;;;;;;;0.68;0.40;;;16.80;77.10;;;;;;4890951;28;95754;-44
2022/04/05 09:02:04;;;;;;;4.78;0.50;;;16.70;76.70;;;;;;4885409;28;95847;-43
2022/04/05 09:04:36;;;;;;;3.63;0.57;;;16.70;77.10;;;;;;4890236;28;95947;-44
2022/04/05 09:07:47;;;;;;;1.48;0.45;;;16.80;76.50;;;;;;4889650;28;95853;-45
2022/04/05 09:10:19;;;;;;;1.27;0.75;;;16.60;77.30;;;;;;4829511;29;96535;-49
2022/04/05 09:12:52;;;;;;;4.03;2.63;;;16.70;79.40;;;;;;4828172;29;95812;-45
2022/04/05 09:15:25;;;;;;;4.78;3.55;;;17.60;81.90;;;;;;4825082;29;96380;-42
2022/04/05 09:17:55;;;;;;;5.70;3.05;;;18.40;80.10;;;;;;4828065;29;96069;-49
2022/04/05 09:20:27;;;;;;;5.60;3.33;;;18.80;78.40;;;;;;4827515;29;96012;-45
2022/04/05 09:23:01;;;;;;;5.90;3.50;;;19.10;77.10;;;;;;4827730;29;96262;-45
2022/04/05 09:25:32;;;;;;;5.68;3.40;;;19.40;76.40;;;;;;4827870;29;96564;-48
2022/04/05 09:28:05;;;;;;;4.78;2.95;;;19.50;75.90;;;;;;4828336;29;95889;-49
2022/04/05 09:30:37;;;;;;;4.95;2.72;;;19.60;75.60;;;;;;4821666;29;96241;-49
2022/04/05 09:33:13;;;;;;;7.30;3.15;;;19.70;75.50;;;;;;4828793;29;95778;-45
2022/04/05 09:35:44;;;;;;;4.47;2.83;;;19.70;75.20;;;;;;4827391;29;96032;-48
2022/04/05 09:38:22;;;;;;;6.97;3.03;;;19.80;75.30;;;;;;4827727;29;96410;-44
2022/04/05 09:40:52;;;;;;;;;;;19.80;75.20;;;;;;4853070;28;95774;-45
2022/04/05 09:43:32;;;;;;;3.72;2.10;;;19.80;75.20;;;;;;4891096;28;95919;-45
2022/04/05 09:46:05;;;;;;;3.03;2.67;;;19.80;75.10;;;;;;4872247;28;98563;-46
2022/04/05 09:48:37;;;;;;;7.13;2.65;;;19.90;75.10;;;;;;4868350;28;95711;-47
2022/04/05 09:51:16;;;;;;;3.55;2.00;;;19.90;75.00;;;;;;4856619;28;96023;-45
2022/04/05 09:53:51;;;;;;;4.78;2.35;;;19.90;75.10;;;;;;4866712;28;96062;-45
2022/04/05 09:56:43;;;;;;;3.50;1.88;;;19.90;74.90;;;;;;4867117;28;96674;-45
2022/04/05 09:59:19;;;;;;;4.30;1.90;;;19.90;75.00;;;;;;4869507;28;96157;-45
2022/04/05 10:01:56;;;;;;;4.00;1.55;;;19.90;75.00;;;;;;4863117;28;96820;-45
2022/04/05 10:04:33;;;;;;;3.72;1.85;;;19.90;74.90;;;;;;4867562;28;96110;-45
2022/04/05 10:07:05;;;;;;;3.85;2.17;;;19.90;74.90;;;;;;4867797;28;96840;-45
2022/04/05 10:09:35;;;;;;;4.47;2.33;;;19.90;74.90;;;;;;4868323;28;96174;-45
2022/04/05 10:12:06;;;;;;;;;;;19.90;74.90;;;;;;4869355;28;96142;-45
2022/04/05 10:14:36;;;;;;;3.17;1.48;;;19.90;74.80;;;;;;4869437;28;95772;-45
2022/04/05 10:17:08;;;;;;;4.03;2.10;;;19.90;74.70;;;;;;4876502;28;97076;-45
2022/04/05 10:19:45;;;;;;;4.15;1.73;;;19.90;74.60;;;;;;4884655;28;95956;-45
2022/04/05 10:22:18;;;;;;;2.42;1.52;;;19.90;74.60;;;;;;4887530;28;95815;-45
2022/04/05 10:24:53;;;;;;;2.35;1.38;;;19.90;74.60;;;;;;4887436;28;96177;-45
2022/04/05 10:27:25;;;;;;;1.65;1.55;;;19.90;74.70;;;;;;4886699;28;96123;-47
2022/04/05 10:30:06;;;;;;;2.05;1.15;;;19.80;74.60;;;;;;4890319;28;95801;-47
2022/04/05 10:32:52;;;;;;;1.60;1.30;;;19.80;74.60;;;;;;4886387;28;95762;-46
2022/04/05 10:35:25;;;;;;;3.17;1.42;;;19.80;74.50;;;;;;4886168;28;96312;-44
2022/04/05 10:38:13;;;;;;;1.95;1.38;;;19.80;74.60;;;;;;4885427;28;96642;-46
2022/04/05 10:41:14;;;;;;;2.03;1.40;;;19.80;74.40;;;;;;4887080;28;96835;-47
2022/04/05 10:43:47;;;;;;;1.20;1.10;;;19.90;74.80;;;;;;4887724;28;95624;-48
2022/04/05 10:46:39;;;;;;;5.20;1.25;;;19.90;74.60;;;;;;4884941;28;95859;-46
2022/04/05 10:49:43;;;;;;;2.00;1.30;;;19.90;74.70;;;;;;4886155;28;95922;-48
2022/04/05 10:52:17;;;;;;;3.30;1.55;;;19.80;74.70;;;;;;4873234;28;96045;-49
2022/04/05 10:54:51;;;;;;;4.63;1.10;;;19.80;74.80;;;;;;4888245;28;95803;-47
2022/04/05 10:57:31;;;;;;;1.95;1.15;;;19.80;74.80;;;;;;4888190;28;95916;-47
2022/04/05 11:00:12;;;;;;;14.95;1.80;;;19.80;74.80;;;;;;4884488;28;96078;-52
2022/04/05 11:02:55;;;;;;;2.35;1.15;;;19.80;74.80;;;;;;4887341;28;102276;-47
2022/04/05 11:05:32;;;;;;;1.30;1.00;;;19.70;74.70;;;;;;4887464;28;95613;-47
2022/04/05 11:08:23;;;;;;;1.98;1.10;;;19.70;74.60;;;;;;4887501;28;95840;-47
2022/04/05 11:10:53;;;;;;;3.78;1.10;;;19.80;74.70;;;;;;4886458;28;96258;-48
2022/04/05 11:13:31;;;;;;;;;;;19.70;74.70;;;;;;4889176;28;95778;-49
2022/04/05 11:16:02;;;;;;;2.97;1.17;;;19.70;74.70;;;;;;4884186;28;97452;-46
2022/04/05 11:18:34;;;;;;;6.68;1.17;;;19.70;74.70;;;;;;4885574;28;95472;-49
2022/04/05 11:21:09;;;;;;;2.88;1.15;;;19.70;74.80;;;;;;4886553;28;96632;-46
2022/04/05 11:23:48;;;;;;;0.73;0.73;;;19.70;74.70;;;;;;4886493;28;96261;-47
2022/04/05 11:26:36;;;;;;;2.13;0.90;;;19.70;74.70;;;;;;4885243;28;97253;-45
2022/04/05 11:29:21;;;;;;;1.13;1.02;;;19.70;74.60;;;;;;4887713;28;95795;-52
2022/04/05 11:32:08;;;;;;;1.80;1.05;;;19.70;74.70;;;;;;4882275;28;96799;-47
2022/04/05 11:34:46;;;;;;;1.05;0.82;;;19.60;74.80;;;;;;4887044;28;96129;-47
2022/04/05 11:37:34;;;;;;;1.98;0.70;;;19.60;74.70;;;;;;4886708;28;95966;-45
2022/04/05 11:40:10;;;;;;;0.63;0.57;;;19.60;74.90;;;;;;4888220;28;95940;-45
2022/04/05 11:42:42;;;;;;;1.58;1.15;;;19.60;74.80;;;;;;4886304;28;97176;-45
2022/04/05 11:45:18;;;;;;;1.00;0.85;;;19.60;74.90;;;;;;4887205;28;95936;-48
2022/04/05 11:47:54;;;;;;;0.70;0.70;;;19.60;74.90;;;;;;4887427;28;95578;-49
2022/04/05 11:50:24;;;;;;;1.17;0.65;;;19.60;74.90;;;;;;4883031;28;96691;-46
2022/04/05 11:52:54;;;;;;;1.42;0.82;;;19.60;75.60;;;;;;4881121;28;96933;-48
2022/04/05 11:58:13;;;;;;;2.42;0.90;;;19.60;75.00;;;;;;4887052;28;95995;-47
2022/04/05 12:00:54;;;;;;;1.25;0.70;;;19.50;75.00;;;;;;4880151;28;96331;-48
2022/04/05 12:03:24;;;;;;;1.05;0.70;;;19.50;75.10;;;;;;4887483;28;96669;-47
2022/04/05 12:05:56;;;;;;;0.85;0.80;;;19.50;75.10;;;;;;4886498;28;96177;-46
2022/04/05 12:08:27;;;;;;;0.55;0.50;;;19.50;75.10;;;;;;4887841;28;96026;-50
2022/04/05 12:10:58;;;;;;;1.90;0.80;;;19.50;75.10;;;;;;4887456;28;96576;-46
2022/04/05 12:13:29;;;;;;;1.27;0.70;;;19.50;75.20;;;;;;4886118;28;96761;-48
2022/04/05 12:16:06;;;;;;;1.27;1.17;;;19.50;75.10;;;;;;4878289;28;98038;-47
2022/04/05 12:18:39;;;;;;;1.00;0.70;;;19.50;75.40;;;;;;4884790;28;95760;-46
2022/04/05 12:21:10;;;;;;;0.70;0.68;;;19.50;75.30;;;;;;4886299;28;95896;-50
2022/04/05 12:23:45;;;;;;;1.05;0.80;;;19.40;75.20;;;;;;4885686;28;95969;-47
2022/04/05 12:26:23;;;;;;;1.38;0.77;;;19.50;75.30;;;;;;4884783;28;96116;-49
2022/04/05 12:28:57;;;;;;;2.15;0.70;;;19.40;75.30;;;;;;4884374;28;96036;-48
2022/04/05 12:31:31;;;;;;;0.77;0.77;;;19.40;75.30;;;;;;4879746;28;95900;-46
2022/04/05 12:34:11;;;;;;;1.05;0.95;;;19.40;75.30;;;;;;4885031;28;97116;-47
2022/04/05 12:36:47;;;;;;;1.25;0.90;;;19.40;75.30;;;;;;4885989;28;95729;-50
2022/04/05 12:39:25;;;;;;;2.13;1.02;;;19.40;75.40;;;;;;4887204;28;95275;-51
2022/04/05 12:42:00;;;;;;;;;;;19.40;75.50;;;;;;4887532;28;96162;-49
2022/04/05 12:44:35;;;;;;;1.27;1.10;;;19.40;75.40;;;;;;4888934;28;95993;-51
2022/04/05 12:47:11;;;;;;;1.58;0.80;;;19.40;75.60;;;;;;4883016;28;95804;-50
2022/04/05 12:49:49;;;;;;;1.40;0.88;;;19.40;75.60;;;;;;4885302;28;95899;-52
2022/04/05 12:52:29;;;;;;;0.93;0.80;;;19.30;75.50;;;;;;4879398;28;98777;-52
2022/04/05 12:55:01;;;;;;;0.88;0.80;;;19.30;75.60;;;;;;4889066;28;96682;-49
2022/04/05 12:57:38;;;;;;;2.00;1.02;;;19.30;75.70;;;;;;4871889;28;96172;-48
2022/04/05 13:00:21;;;;;;;1.33;1.00;;;19.30;75.90;;;;;;4895989;28;95802;-46
2022/04/05 13:03:19;;;;;;;1.00;0.90;;;19.20;75.90;;;;;;4888399;28;96220;-49
2022/04/05 13:08:40;;;;;;;0.80;0.80;;;19.20;76.00;;;;;;4889826;28;95990;-48
2022/04/05 13:11:30;;;;;;;0.70;0.70;;;19.10;76.00;;;;;;4882235;28;96055;-47
2022/04/05 13:14:14;;;;;;;1.88;0.85;;;19.20;76.10;;;;;;4889373;28;96967;-49
2022/04/05 13:16:47;;;;;;;0.98;0.68;;;19.30;76.00;;;;;;4883306;28;96457;-57
2022/04/05 13:19:21;;;;;;;1.00;0.60;;;19.50;75.60;;;;;;4887821;28;95691;-47
2022/04/05 13:21:53;;;;;;;0.95;0.82;;;19.70;75.20;;;;;;4887002;28;97176;-49
2022/04/05 13:24:40;;;;;;;1.02;0.90;;;19.90;74.80;;;;;;4887530;28;95747;-50
2022/04/05 13:27:17;;;;;;;0.70;0.70;;;20.10;74.50;;;;;;4888600;28;96441;-50
2022/04/05 13:29:49;;;;;;;0.70;0.70;;;20.30;73.50;;;;;;4888522;28;96299;-51